Port Dufferin, Canada
Current Conditions -  °F | °C
As of 1:41 AM on Saturday 20 Dec 2014 (Local Time) from CYHZ Reporting Station
Overcast Overcast  
Wind Chill: -8°   Ceiling: 1800
Heat Index: -2°   Visibility: 15mi
Dew Point: -3°   Wind: 15mph
Humidity: 93%   Direction: 20°NNE
Pressure: 29.98"   Gusts: 23mph
Location:  44.92°N, 62.38°W
Report Text: CYHZ 200541Z 02013G20KT 15SM FEW005 OVC018 M02/M03 A2998 RMK SF2SC6 SLP160
Loading
Personal Weather Stations






























Interactive Weather Map New forecast layout! Learn more

10-Day Weather Forecast

Advertisements
Track Severe Weather on mobile